Time;durP1;ratioP1;P1;durP2;ratioP2;P2;SDS_P1;SDS_P2;PMS_P1;PMS_P2;Temp;Humidity;BMP_temperature;BMP_pressure;BME280_temperature;BME280_humidity;BME280_pressure;Samples;Min_cycle;Max_cycle;Signal;HPM_P1;HPM_P2
2021/06/26 00:00:14;;;;;;;12.45;10.80;;;;;;;15.04;74.59;99175.97;3629292;39;20050;-61
2021/06/26 00:02:42;;;;;;;12.52;11.07;;;;;;;15.00;74.09;99171.28;3629144;39;20042;-61
2021/06/26 00:05:12;;;;;;;10.80;9.80;;;;;;;14.96;74.34;99183.41;3629262;39;20336;-61
2021/06/26 00:07:40;;;;;;;15.32;10.82;;;;;;;14.97;74.29;99185.03;3628991;39;20053;-60
2021/06/26 00:10:09;;;;;;;12.35;10.50;;;;;;;14.91;74.37;99185.88;3627988;39;20082;-61
2021/06/26 00:12:39;;;;;;;11.85;10.57;;;;;;;14.79;74.50;99185.72;3629112;39;20187;-60
2021/06/26 00:15:08;;;;;;;12.38;10.10;;;;;;;14.73;74.88;99186.53;3629283;39;20054;-60
2021/06/26 00:17:36;;;;;;;11.32;9.60;;;;;;;14.76;75.22;99184.28;3629135;39;20055;-60
2021/06/26 00:20:05;;;;;;;15.88;9.77;;;;;;;14.82;74.98;99187.97;3629253;39;20051;-60
2021/06/26 00:22:33;;;;;;;14.85;11.13;;;;;;;14.73;74.70;99183.88;3629271;39;20065;-61
2021/06/26 00:25:01;;;;;;;9.68;8.77;;;;;;;14.64;74.81;99177.16;3629088;39;20074;-61
2021/06/26 00:27:30;;;;;;;11.30;9.88;;;;;;;14.60;74.90;99187.41;3628996;39;20078;-61
2021/06/26 00:29:59;;;;;;;13.52;9.60;;;;;;;14.60;74.90;99182.91;3629161;39;20027;-61
2021/06/26 00:32:27;;;;;;;10.95;9.02;;;;;;;14.66;74.96;99188.44;3628620;39;20095;-60
2021/06/26 00:34:54;;;;;;;12.23;9.18;;;;;;;14.70;74.64;99184.31;3629139;39;20076;-60
2021/06/26 00:37:22;;;;;;;10.32;9.38;;;;;;;14.64;74.59;99185.97;3629144;39;20300;-59
2021/06/26 00:39:50;;;;;;;11.73;9.27;;;;;;;14.61;74.81;99187.22;3630235;39;20077;-59
2021/06/26 00:42:18;;;;;;;11.00;8.27;;;;;;;14.64;74.80;99174.50;3629706;39;20442;-59
2021/06/26 00:44:45;;;;;;;9.60;8.70;;;;;;;14.64;74.65;99179.81;3630563;39;20054;-60
2021/06/26 00:47:14;;;;;;;10.40;8.15;;;;;;;14.63;74.43;99176.34;3630237;39;20047;-60
2021/06/26 00:49:42;;;;;;;9.85;8.90;;;;;;;14.63;74.23;99180.84;3630174;39;20400;-60
2021/06/26 00:52:10;;;;;;;9.52;8.48;;;;;;;14.63;74.73;99173.69;3630339;39;20055;-60
2021/06/26 00:54:38;;;;;;;15.75;10.45;;;;;;;14.63;74.44;99176.34;3629154;39;20046;-58
2021/06/26 00:57:08;;;;;;;10.88;9.90;;;;;;;14.49;74.48;99175.59;3630046;39;20054;-59
2021/06/26 00:59:36;;;;;;;13.90;9.90;;;;;;;14.39;74.47;99183.13;3630145;39;20043;-58
2021/06/26 01:02:06;;;;;;;11.13;9.43;;;;;;;14.31;75.10;99175.38;3630308;39;20050;-59
2021/06/26 01:04:35;;;;;;;13.05;10.25;;;;;;;14.31;74.94;99178.03;3630232;39;20335;-60
2021/06/26 01:07:03;;;;;;;12.57;9.93;;;;;;;14.30;75.26;99176.41;3629882;39;20046;-60
2021/06/26 01:09:31;;;;;;;12.40;10.25;;;;;;;14.24;75.41;99180.69;3630551;39;20035;-60
2021/06/26 01:12:00;;;;;;;11.60;10.50;;;;;;;14.17;75.18;99176.44;3630157;39;20058;-60
2021/06/26 01:14:29;;;;;;;14.63;10.10;;;;;;;14.12;75.82;99177.88;3630148;39;20050;-61
2021/06/26 01:16:57;;;;;;;11.35;10.18;;;;;;;14.13;75.48;99176.84;3629962;39;20053;-61
2021/06/26 01:19:25;;;;;;;12.18;10.85;;;;;;;14.11;75.36;99173.56;3630280;39;20035;-60
2021/06/26 01:21:55;;;;;;;12.05;10.73;;;;;;;14.02;75.84;99181.94;3630305;39;20395;-59
2021/06/26 01:24:24;;;;;;;12.18;10.88;;;;;;;14.00;76.22;99174.19;3629092;39;20058;-60
2021/06/26 01:26:56;;;;;;;12.10;10.40;;;;;;;13.98;76.09;99172.75;3629935;39;20086;-60
2021/06/26 01:29:24;;;;;;;10.98;9.73;;;;;;;14.01;76.25;99175.00;3630181;39;20453;-60
2021/06/26 01:31:52;;;;;;;15.75;11.88;;;;;;;14.00;76.12;99176.00;3630192;39;20350;-61
2021/06/26 01:34:20;;;;;;;11.98;10.27;;;;;;;13.99;76.22;99171.72;3630299;39;20292;-59
2021/06/26 01:36:48;;;;;;;11.73;10.20;;;;;;;13.93;75.77;99167.25;3629867;39;20082;-59
2021/06/26 01:39:16;;;;;;;11.77;9.63;;;;;;;13.84;76.16;99163.97;3629868;39;20041;-60
2021/06/26 01:41:45;;;;;;;17.52;9.85;;;;;;;13.80;76.21;99160.91;3630260;39;20054;-60
2021/06/26 01:44:14;;;;;;;15.60;12.02;;;;;;;13.85;76.69;99171.75;3630050;39;20047;-60
2021/06/26 01:46:42;;;;;;;12.57;10.30;;;;;;;13.91;76.30;99166.63;3629866;39;20087;-60
2021/06/26 01:49:11;;;;;;;12.07;8.77;;;;;;;13.91;76.04;99171.94;3629910;39;20079;-60
2021/06/26 01:51:39;;;;;;;9.63;8.07;;;;;;;13.95;76.11;99165.19;3630044;39;20039;-61
2021/06/26 01:54:09;;;;;;;11.73;8.40;;;;;;;14.02;75.53;99169.47;3630126;39;20057;-60
2021/06/26 01:56:37;;;;;;;9.95;8.80;;;;;;;14.01;75.03;99159.88;3631184;39;20053;-59
2021/06/26 01:59:06;;;;;;;11.05;9.95;;;;;;;13.91;75.37;99159.47;3631302;39;20039;-58
2021/06/26 02:01:35;;;;;;;9.35;8.45;;;;;;;13.80;75.59;99155.59;3631408;39;20050;-60
2021/06/26 02:04:03;;;;;;;11.73;10.02;;;;;;;13.76;75.71;99164.19;3632643;39;20526;-61
2021/06/26 02:06:32;;;;;;;11.57;10.48;;;;;;;13.73;75.86;99153.97;3632916;39;20046;-60
2021/06/26 02:08:59;;;;;;;13.13;10.55;;;;;;;13.71;75.65;99156.81;3633726;39;20053;-60
2021/06/26 02:11:27;;;;;;;12.52;10.55;;;;;;;13.58;76.48;99167.44;3635203;39;20038;-61
2021/06/26 02:13:55;;;;;;;11.40;9.98;;;;;;;13.59;75.80;99158.44;3635775;39;20047;-59
2021/06/26 02:16:24;;;;;;;14.63;11.02;;;;;;;13.58;76.33;99164.78;3633128;39;20051;-60
2021/06/26 02:18:53;;;;;;;12.13;9.98;;;;;;;13.55;76.11;99158.03;3634574;39;20315;-60
2021/06/26 02:21:20;;;;;;;11.35;9.70;;;;;;;13.47;76.11;99162.69;3634970;39;20034;-61
2021/06/26 02:23:48;;;;;;;16.52;10.20;;;;;;;13.49;76.55;99166.00;3633698;39;20057;-60
2021/06/26 02:26:16;;;;;;;9.57;8.20;;;;;;;13.49;76.51;99166.00;3633598;39;20023;-59
2021/06/26 02:28:44;;;;;;;10.18;9.18;;;;;;;13.57;76.17;99168.44;3633145;39;20463;-61
2021/06/26 02:31:11;;;;;;;14.48;10.02;;;;;;;13.52;75.73;99162.94;3632870;39;20055;-61
2021/06/26 02:33:41;;;;;;;9.35;8.45;;;;;;;13.60;76.42;99170.72;3632930;39;20425;-61
2021/06/26 02:36:09;;;;;;;10.73;9.05;;;;;;;13.68;75.89;99164.38;3633381;39;20038;-61
2021/06/26 02:38:37;;;;;;;10.02;8.98;;;;;;;13.70;75.73;99168.47;3632736;39;20047;-60
2021/06/26 02:41:04;;;;;;;10.10;8.65;;;;;;;13.61;75.17;99164.38;3630555;39;20093;-60
2021/06/26 02:43:32;;;;;;;10.05;8.95;;;;;;;13.57;75.22;99166.59;3630991;39;20050;-61
2021/06/26 02:46:00;;;;;;;9.57;8.63;;;;;;;13.54;75.53;99164.34;3631026;39;20050;-60
2021/06/26 02:48:28;;;;;;;11.45;10.18;;;;;;;13.45;75.29;99170.88;3631159;39;20614;-60
2021/06/26 02:50:57;;;;;;;12.35;9.32;;;;;;;13.32;75.60;99162.91;3629892;39;20050;-60
2021/06/26 02:53:25;;;;;;;13.90;10.18;;;;;;;13.27;76.36;99163.50;3630105;39;20087;-59
2021/06/26 02:55:56;;;;;;;14.77;9.63;;;;;;;13.25;75.92;99164.72;3629400;39;20054;-59
2021/06/26 02:58:24;;;;;;;11.10;9.95;;;;;;;13.25;76.49;99162.06;3629795;39;20118;-59
2021/06/26 03:00:52;;;;;;;10.82;9.50;;;;;;;13.22;76.52;99168.56;3629655;39;20046;-60
2021/06/26 03:03:20;;;;;;;10.70;9.68;;;;;;;13.22;76.13;99165.09;3630170;39;20031;-59
2021/06/26 03:05:48;;;;;;;10.93;8.52;;;;;;;13.22;76.68;99168.56;3629821;39;20062;-60
2021/06/26 03:08:17;;;;;;;10.95;9.93;;;;;;;13.22;76.31;99163.25;3629123;39;20392;-60
2021/06/26 03:10:49;;;;;;;10.48;9.38;;;;;;;13.20;76.00;99167.13;3629803;39;20050;-60
2021/06/26 03:13:17;;;;;;;10.35;9.45;;;;;;;13.17;76.05;99163.03;3629137;39;20569;-59
2021/06/26 03:15:46;;;;;;;11.30;9.63;;;;;;;13.19;76.46;99157.53;3630227;39;20057;-60
2021/06/26 03:18:15;;;;;;;11.30;9.27;;;;;;;13.18;76.29;99158.53;3629092;39;20395;-60
2021/06/26 03:20:43;;;;;;;8.68;7.85;;;;;;;13.17;76.48;99155.06;3630730;39;20054;-59
2021/06/26 03:23:11;;;;;;;8.27;7.43;;;;;;;13.24;76.09;99157.78;3630394;39;20050;-60
2021/06/26 03:25:40;;;;;;;9.88;7.45;;;;;;;13.28;75.92;99164.31;3630188;39;20050;-61
2021/06/26 03:28:08;;;;;;;11.10;8.15;;;;;;;13.28;75.54;99164.31;3629748;39;20027;-61
2021/06/26 03:30:39;;;;;;;9.07;8.18;;;;;;;13.23;75.85;99164.13;3629679;39;20384;-61
2021/06/26 03:33:07;;;;;;;14.90;8.52;;;;;;;13.22;75.41;99162.44;3630494;39;20027;-60
2021/06/26 03:35:35;;;;;;;9.55;8.57;;;;;;;13.17;76.05;99163.03;3630256;39;20127;-60
2021/06/26 03:38:05;;;;;;;10.32;7.75;;;;;;;13.14;75.86;99163.44;3630434;39;20054;-60
2021/06/26 03:40:33;;;;;;;9.07;7.07;;;;;;;13.20;75.95;99159.16;3630187;39;20086;-59
2021/06/26 03:43:03;;;;;;;9.25;7.82;;;;;;;13.26;75.50;99159.19;3630304;39;20422;-60
2021/06/26 03:45:31;;;;;;;11.85;8.32;;;;;;;13.30;75.62;99149.81;3630332;39;20050;-61
2021/06/26 03:47:59;;;;;;;10.70;8.55;;;;;;;13.28;75.29;99153.72;3630084;39;20046;-61
2021/06/26 03:50:32;;;;;;;9.57;8.68;;;;;;;13.30;75.23;99154.31;3629604;39;20054;-60
2021/06/26 03:53:01;;;;;;;9.95;8.57;;;;;;;13.30;75.34;99152.47;3630744;39;20326;-60
2021/06/26 03:55:29;;;;;;;9.38;8.48;;;;;;;13.29;74.95;99156.16;3630252;39;20043;-63
2021/06/26 03:57:57;;;;;;;11.55;8.35;;;;;;;13.31;74.87;99161.28;3628439;39;20049;-60
2021/06/26 04:00:26;;;;;;;8.32;7.53;;;;;;;13.30;75.02;99160.44;3629752;39;20015;-60
2021/06/26 04:02:55;;;;;;;8.75;7.93;;;;;;;13.33;74.84;99165.34;3630144;39;20573;-60
2021/06/26 04:05:23;;;;;;;10.60;9.10;;;;;;;13.28;74.35;99167.78;3629115;39;20514;-61
2021/06/26 04:07:50;;;;;;;9.60;7.72;;;;;;;13.26;74.60;99171.66;3629440;39;20438;-61
2021/06/26 04:10:18;;;;;;;9.30;8.40;;;;;;;13.18;74.89;99177.94;3629136;39;20077;-60
2021/06/26 04:12:46;;;;;;;9.32;8.32;;;;;;;13.20;74.95;99178.56;3630046;39;20126;-60
2021/06/26 04:15:14;;;;;;;8.52;7.63;;;;;;;13.29;75.09;99174.72;3629528;39;20162;-60
2021/06/26 04:17:44;;;;;;;9.90;7.72;;;;;;;13.34;74.66;99172.28;3628460;39;20396;-61
2021/06/26 04:20:13;;;;;;;9.98;8.90;;;;;;;13.31;73.79;99169.25;3629530;39;20050;-60
2021/06/26 04:22:45;;;;;;;8.27;7.53;;;;;;;13.29;74.56;99176.56;3630191;39;20058;-61
2021/06/26 04:25:15;;;;;;;10.57;8.57;;;;;;;13.30;74.24;99172.88;3629918;39;20514;-60
2021/06/26 04:27:45;;;;;;;8.60;7.70;;;;;;;13.41;74.17;99176.81;3629059;39;20082;-60
2021/06/26 04:30:14;;;;;;;9.57;8.40;;;;;;;13.47;74.38;99178.63;3628808;39;20470;-60
2021/06/26 04:32:43;;;;;;;12.80;8.10;;;;;;;13.47;74.23;99178.63;3631618;39;20349;-62
2021/06/26 04:35:17;;;;;;;10.35;9.32;;;;;;;13.51;73.56;99174.56;3631015;39;20058;-60
2021/06/26 04:37:45;;;;;;;12.13;8.82;;;;;;;13.60;73.67;99181.34;3631396;39;20045;-60
2021/06/26 04:40:14;;;;;;;9.00;7.53;;;;;;;13.67;73.39;99173.34;3630780;39;20051;-62
2021/06/26 04:42:41;;;;;;;9.57;7.53;;;;;;;13.81;73.84;99181.13;3630575;39;20047;-60
2021/06/26 04:45:10;;;;;;;9.35;7.40;;;;;;;13.94;73.05;99172.34;3631069;39;20038;-60
2021/06/26 04:47:40;;;;;;;9.77;7.82;;;;;;;14.05;72.83;99177.03;3630552;39;20046;-60
2021/06/26 04:50:11;;;;;;;7.53;6.72;;;;;;;14.12;72.36;99175.22;3629341;39;20058;-60
2021/06/26 04:52:40;;;;;;;8.45;7.63;;;;;;;14.21;72.46;99169.69;3630402;39;20045;-59
2021/06/26 04:55:09;;;;;;;9.07;8.00;;;;;;;14.27;72.05;99171.50;3630418;39;20058;-60
2021/06/26 04:57:37;;;;;;;10.45;6.55;;;;;;;14.37;71.87;99172.72;3630156;39;20027;-61
2021/06/26 05:00:07;;;;;;;9.13;7.60;;;;;;;14.47;71.83;99174.13;3630150;39;20050;-60
2021/06/26 05:02:34;;;;;;;11.40;7.53;;;;;;;14.48;71.45;99171.22;3630432;39;20067;-63
2021/06/26 05:05:02;;;;;;;8.57;7.78;;;;;;;14.56;71.81;99178.22;3629419;39;20055;-60
2021/06/26 05:07:32;;;;;;;8.60;7.43;;;;;;;14.59;70.96;99170.63;3630400;39;20050;-61
2021/06/26 05:10:00;;;;;;;8.60;7.80;;;;;;;14.64;70.90;99171.84;3629319;39;20039;-59
2021/06/26 05:12:27;;;;;;;10.32;9.35;;;;;;;14.68;71.07;99171.22;3630546;39;20078;-59
2021/06/26 05:14:55;;;;;;;9.20;8.18;;;;;;;14.71;70.38;99176.13;3629505;39;20030;-60
2021/06/26 05:17:23;;;;;;;8.38;7.57;;;;;;;14.75;71.27;99172.00;3629972;39;20047;-61
2021/06/26 05:19:51;;;;;;;8.80;7.78;;;;;;;14.84;70.98;99175.25;3630064;39;20046;-60
2021/06/26 05:22:19;;;;;;;8.55;7.45;;;;;;;14.93;70.90;99173.97;3630333;39;20047;-61
2021/06/26 05:24:48;;;;;;;8.23;7.40;;;;;;;15.08;70.58;99174.53;3630207;39;20293;-61
2021/06/26 05:27:15;;;;;;;10.60;9.55;;;;;;;15.18;69.57;99171.38;3629866;39;20083;-61
2021/06/26 05:29:43;;;;;;;10.00;7.40;;;;;;;15.15;70.18;99174.50;3630081;39;20141;-61
2021/06/26 05:32:11;;;;;;;13.75;8.85;;;;;;;15.24;70.18;99172.41;3630133;39;20031;-61
2021/06/26 05:34:41;;;;;;;9.52;8.52;;;;;;;15.23;69.84;99173.44;3630034;39;20537;-61
2021/06/26 05:37:09;;;;;;;10.50;9.40;;;;;;;15.26;70.53;99170.31;3629910;39;20612;-60
2021/06/26 05:39:37;;;;;;;9.10;8.15;;;;;;;15.38;70.26;99170.47;3629928;39;20054;-61
2021/06/26 05:42:07;;;;;;;10.40;9.20;;;;;;;15.42;69.29;99167.16;3630113;39;20338;-60
2021/06/26 05:44:34;;;;;;;11.27;9.70;;;;;;;15.35;69.56;99167.22;3630163;39;20054;-60
2021/06/26 05:47:02;;;;;;;13.65;11.55;;;;;;;15.38;69.99;99173.94;3629809;39;20053;-60
2021/06/26 05:49:30;;;;;;;10.63;9.57;;;;;;;15.47;69.67;99163.84;3629878;39;20047;-59
2021/06/26 05:51:58;;;;;;;13.32;10.07;;;;;;;15.54;70.19;99169.94;3630126;39;20304;-60
2021/06/26 05:54:26;;;;;;;10.82;9.73;;;;;;;15.63;69.47;99173.97;3629878;39;20050;-60
2021/06/26 05:56:53;;;;;;;13.32;9.93;;;;;;;15.72;70.08;99170.06;3629848;39;20054;-59
2021/06/26 05:59:23;;;;;;;12.52;10.80;;;;;;;15.87;69.40;99172.38;3629938;39;20050;-60
2021/06/26 06:01:51;;;;;;;10.27;9.32;;;;;;;15.99;69.56;99173.31;3629775;39;20047;-61
2021/06/26 06:04:18;;;;;;;10.82;9.73;;;;;;;16.19;69.28;99173.13;3630281;39;20334;-60
2021/06/26 06:06:46;;;;;;;10.73;9.73;;;;;;;16.35;68.75;99180.56;3629676;39;20046;-60
2021/06/26 06:09:14;;;;;;;11.10;9.95;;;;;;;16.44;68.61;99166.94;3630284;39;20039;-59
2021/06/26 06:11:42;;;;;;;11.98;10.52;;;;;;;16.50;68.63;99169.56;3629906;39;20047;-59
2021/06/26 06:14:10;;;;;;;11.20;10.13;;;;;;;16.60;68.60;99166.34;3629854;39;20388;-59
2021/06/26 06:16:39;;;;;;;11.88;10.70;;;;;;;16.72;68.62;99171.75;3628707;39;20343;-60
2021/06/26 06:19:07;;;;;;;12.05;10.90;;;;;;;16.81;68.08;99181.13;3629634;39;20046;-60
2021/06/26 06:21:34;;;;;;;11.75;10.55;;;;;;;16.87;67.81;99177.56;3629808;39;20054;-60
2021/06/26 06:24:02;;;;;;;13.05;11.57;;;;;;;16.94;67.89;99180.16;3629706;39;20130;-59
2021/06/26 06:26:30;;;;;;;13.18;10.30;;;;;;;16.97;67.50;99185.03;3629493;39;20054;-59
2021/06/26 06:28:58;;;;;;;12.57;11.30;;;;;;;17.13;67.58;99183.63;3630278;39;20046;-59
2021/06/26 06:31:25;;;;;;;12.00;10.88;;;;;;;17.32;67.29;99186.03;3630967;39;20079;-60
2021/06/26 06:33:55;;;;;;;11.93;10.70;;;;;;;17.43;67.24;99180.94;3631196;39;20054;-62
2021/06/26 06:36:23;;;;;;;12.15;10.95;;;;;;;17.53;66.67;99182.00;3632436;39;20042;-59
2021/06/26 06:38:50;;;;;;;16.85;11.77;;;;;;;17.57;66.74;99177.84;3632505;39;20096;-60
2021/06/26 06:41:18;;;;;;;12.32;11.13;;;;;;;17.68;66.50;99178.94;3632420;39;20042;-59
2021/06/26 06:43:46;;;;;;;12.10;10.90;;;;;;;17.82;66.61;99182.22;3631357;39;20050;-60
2021/06/26 06:46:14;;;;;;;13.35;11.63;;;;;;;17.81;65.16;99185.94;3629536;39;20396;-59
2021/06/26 06:48:42;;;;;;;12.60;11.27;;;;;;;17.74;66.39;99183.38;3629734;39;20035;-58
2021/06/26 06:51:11;;;;;;;14.13;12.73;;;;;;;17.92;66.47;99182.50;3629673;39;20038;-59
2021/06/26 06:53:39;;;;;;;14.10;12.70;;;;;;;18.18;65.87;99181.22;3629131;39;20046;-58
2021/06/26 06:56:06;;;;;;;12.07;10.98;;;;;;;18.28;65.28;99176.06;3629755;39;20054;-60
2021/06/26 06:58:34;;;;;;;11.70;10.55;;;;;;;18.30;65.12;99179.34;3631892;39;20051;-59
2021/06/26 07:01:02;;;;;;;15.00;11.30;;;;;;;18.37;64.93;99178.41;3630440;39;20042;-61
2021/06/26 07:03:30;;;;;;;12.70;10.52;;;;;;;18.49;64.53;99181.88;3630512;39;20053;-60
2021/06/26 07:05:58;;;;;;;11.25;10.13;;;;;;;18.56;64.60;99179.91;3629715;39;20394;-61
2021/06/26 07:08:27;;;;;;;12.25;10.95;;;;;;;18.66;64.11;99180.13;3631288;39;20035;-61
2021/06/26 07:10:56;;;;;;;11.30;10.18;;;;;;;18.77;62.90;99178.50;3632188;39;20078;-60
2021/06/26 07:13:24;;;;;;;10.48;9.32;;;;;;;18.81;62.58;99177.78;3633452;39;20351;-59
2021/06/26 07:15:52;;;;;;;9.93;8.93;;;;;;;18.85;62.88;99172.75;3633569;39;20143;-60
2021/06/26 07:18:21;;;;;;;10.85;8.95;;;;;;;18.99;62.59;99167.97;3633901;39;20019;-60
2021/06/26 07:20:50;;;;;;;9.32;8.52;;;;;;;19.12;61.10;99169.53;3633588;39;20033;-61
2021/06/26 07:23:17;;;;;;;9.48;8.50;;;;;;;19.23;61.03;99179.41;3633423;39;20063;-59
2021/06/26 07:25:47;;;;;;;10.10;8.05;;;;;;;19.33;60.20;99174.22;3631767;39;20027;-60
2021/06/26 07:28:15;;;;;;;8.32;7.53;;;;;;;19.39;59.90;99172.44;3631750;39;20394;-59
2021/06/26 07:30:42;;;;;;;9.73;8.73;;;;;;;19.44;59.85;99168.00;3631636;39;20057;-60
2021/06/26 07:33:10;;;;;;;11.90;10.65;;;;;;;19.43;60.50;99170.91;3630734;39;20054;-60
2021/06/26 07:35:38;;;;;;;10.82;9.52;;;;;;;19.57;60.37;99168.75;3630127;39;20046;-60
2021/06/26 07:38:06;;;;;;;10.50;8.57;;;;;;;19.61;59.66;99160.00;3629229;39;20034;-61
2021/06/26 07:40:33;;;;;;;9.07;8.18;;;;;;;19.68;59.26;99163.34;3629630;39;20354;-59
2021/06/26 07:43:03;;;;;;;11.20;9.30;;;;;;;19.77;58.29;99158.38;3629643;39;20127;-60
2021/06/26 07:45:32;;;;;;;9.98;8.27;;;;;;;19.74;58.75;99159.66;3629554;39;20058;-60
2021/06/26 07:48:00;;;;;;;9.70;8.70;;;;;;;19.81;57.77;99159.53;3629266;39;20043;-61
2021/06/26 07:50:28;;;;;;;9.50;8.32;;;;;;;19.96;55.86;99161.63;3629317;39;20046;-60
2021/06/26 07:52:56;;;;;;;8.90;7.35;;;;;;;19.98;56.47;99157.63;3629398;39;20126;-60
2021/06/26 07:55:24;;;;;;;8.57;7.18;;;;;;;20.13;55.20;99154.38;3629364;39;20054;-61
2021/06/26 07:57:52;;;;;;;8.77;6.53;;;;;;;20.32;53.43;99151.41;3628943;39;20038;-60
2021/06/26 08:00:21;;;;;;;7.45;6.18;;;;;;;20.35;52.86;99148.22;3629456;39;20046;-60
2021/06/26 08:02:49;;;;;;;8.15;7.03;;;;;;;20.38;53.14;99143.19;3629563;39;20050;-60
2021/06/26 08:05:17;;;;;;;9.70;7.25;;;;;;;20.45;52.97;99146.50;3629038;39;20030;-61
2021/06/26 08:07:52;;;;;;;8.23;6.20;;;;;;;20.59;50.49;99148.84;3628933;39;20082;-61
2021/06/26 08:10:21;;;;;;;7.70;6.18;;;;;;;20.64;51.62;99144.34;3631762;22;20036;-65
2021/06/26 08:12:49;;;;;;;7.80;5.25;;;;;;;20.69;51.65;99135.53;3589188;40;20061;-65
2021/06/26 08:15:17;;;;;;;7.90;5.85;;;;;;;20.74;51.17;99130.25;3581165;40;20058;-64
2021/06/26 08:17:46;;;;;;;5.65;5.00;;;;;;;20.92;50.47;99135.28;3590723;40;20044;-65
2021/06/26 08:20:14;;;;;;;8.27;5.53;;;;;;;21.11;47.96;99132.25;3591932;40;20393;-64
2021/06/26 08:22:42;;;;;;;7.07;6.35;;;;;;;21.17;48.96;99125.84;3591823;40;20051;-64
2021/06/26 08:25:11;;;;;;;7.03;6.15;;;;;;;21.17;49.30;99121.28;3591642;40;20054;-65
2021/06/26 08:27:38;;;;;;;7.88;7.07;;;;;;;21.13;49.29;99117.47;3582037;40;20048;-65
2021/06/26 08:30:07;;;;;;;5.63;5.07;;;;;;;21.12;49.46;99115.06;3591555;40;20048;-65
2021/06/26 08:32:35;;;;;;;7.38;6.32;;;;;;;21.18;49.85;99114.03;3582413;40;20149;-66
2021/06/26 08:35:05;;;;;;;6.90;5.15;;;;;;;21.31;49.92;99112.81;3582706;40;20028;-66
2021/06/26 08:37:34;;;;;;;6.07;4.88;;;;;;;21.41;49.84;99111.06;3581774;40;20045;-65
2021/06/26 08:40:03;;;;;;;5.45;4.85;;;;;;;21.54;49.54;99115.19;3582447;40;20102;-65
2021/06/26 08:42:30;;;;;;;5.78;5.28;;;;;;;21.87;47.56;99114.09;3581830;40;20033;-65
2021/06/26 08:45:01;;;;;;;5.57;4.78;;;;;;;22.02;47.85;99105.31;3590655;40;20150;-64
2021/06/26 08:47:29;;;;;;;7.00;5.22;;;;;;;22.22;46.68;99107.34;3591271;40;20056;-64
2021/06/26 08:49:56;;;;;;;8.07;4.97;;;;;;;22.24;46.41;99113.28;3592096;40;20033;-66
2021/06/26 08:52:25;;;;;;;6.13;5.53;;;;;;;22.28;46.98;99114.38;3591729;40;20052;-65
2021/06/26 08:54:55;;;;;;;7.85;5.60;;;;;;;22.37;46.27;99109.31;3590691;40;20436;-63
2021/06/26 08:57:27;;;;;;;5.93;5.32;;;;;;;22.43;46.15;99117.16;3590683;40;20076;-67
2021/06/26 08:59:55;;;;;;;5.53;4.28;;;;;;;22.56;46.24;99115.06;3581486;40;20056;-64
2021/06/26 09:02:24;;;;;;;4.90;4.45;;;;;;;22.63;45.76;99119.13;3592382;40;20373;-65
2021/06/26 09:04:52;;;;;;;6.72;4.80;;;;;;;22.77;44.58;99113.25;3591882;40;20036;-66
2021/06/26 09:07:32;;;;;;;6.88;6.28;;;;;;;22.83;44.86;99112.19;3591790;40;20059;-64
2021/06/26 09:10:12;;;;;;;7.43;6.10;;;;;;;22.95;44.61;99102.81;3583372;40;20077;-64
2021/06/26 09:12:41;;;;;;;6.03;4.85;;;;;;;23.07;43.79;99107.16;3593705;40;20044;-63
2021/06/26 09:15:10;;;;;;;6.65;4.30;;;;;;;23.15;43.00;99103.94;3583645;40;20049;-64
2021/06/26 09:17:38;;;;;;;7.30;5.50;;;;;;;23.10;42.86;99109.31;3584573;40;20055;-63
2021/06/26 09:20:09;;;;;;;5.53;5.03;;;;;;;23.15;43.08;99109.34;3593854;40;20048;-63
2021/06/26 09:22:41;;;;;;;4.35;3.92;;;;;;;23.42;43.28;99107.19;3582737;40;20044;-64
2021/06/26 09:25:25;;;;;;;10.23;7.82;;;;;;;23.62;42.19;99100.97;3591655;40;20075;-63
2021/06/26 09:27:53;;;;;;;9.57;5.43;;;;;;;23.65;42.03;99105.88;3591722;40;20057;-62
2021/06/26 09:30:36;;;;;;;6.43;4.35;;;;;;;23.60;42.05;99099.66;3591492;40;20104;-64
2021/06/26 09:33:11;;;;;;;8.00;5.95;;;;;;;23.56;42.30;99102.09;3591690;40;20051;-64
2021/06/26 09:35:40;;;;;;;7.07;6.35;;;;;;;23.62;42.88;99098.28;3591557;40;20083;-64
2021/06/26 09:38:10;;;;;;;6.57;4.93;;;;;;;23.59;43.00;99103.41;3590809;40;20137;-64
2021/06/26 09:40:40;;;;;;;7.38;5.70;;;;;;;23.75;41.63;99098.84;3582347;40;20129;-67
2021/06/26 09:43:09;;;;;;;5.78;5.18;;;;;;;23.76;41.33;99095.06;3591739;40;20059;-64
2021/06/26 09:45:37;;;;;;;4.95;4.55;;;;;;;23.68;41.77;99096.44;3582221;40;20044;-64
2021/06/26 09:48:08;;;;;;;3.90;3.60;;;;;;;23.71;41.84;99101.28;3591433;40;20397;-64
2021/06/26 09:50:39;;;;;;;4.57;3.97;;;;;;;23.68;42.20;99094.56;3592003;40;20059;-64
2021/06/26 09:53:10;;;;;;;5.65;5.15;;;;;;;23.71;41.48;99088.59;3592979;40;20052;-64
2021/06/26 09:55:40;;;;;;;4.70;4.15;;;;;;;23.53;41.23;99096.41;3582799;40;20325;-64
2021/06/26 09:58:09;;;;;;;4.20;3.80;;;;;;;23.44;41.62;99088.84;3590955;40;20321;-64
2021/06/26 10:00:40;;;;;;;4.35;3.95;;;;;;;23.20;41.94;99093.16;3591483;40;20032;-64
2021/06/26 10:03:09;;;;;;;5.68;4.15;;;;;;;23.23;42.37;99093.44;3591353;40;20146;-65
2021/06/26 10:05:36;;;;;;;7.25;5.45;;;;;;;23.27;41.80;99092.88;3591890;40;20055;-63
2021/06/26 10:08:07;;;;;;;4.97;4.47;;;;;;;23.18;42.24;99095.31;3591656;40;20056;-63
2021/06/26 10:10:36;;;;;;;6.82;4.88;;;;;;;23.14;42.39;99089.63;3591610;40;20052;-64
2021/06/26 10:13:05;;;;;;;5.57;5.05;;;;;;;23.06;42.60;99092.84;3591497;40;20056;-65
2021/06/26 10:15:34;;;;;;;4.53;4.13;;;;;;;22.98;43.10;99096.91;3591747;40;20407;-65
2021/06/26 10:18:02;;;;;;;5.05;4.60;;;;;;;23.08;42.92;99096.09;3591216;40;20024;-64
2021/06/26 10:20:30;;;;;;;7.32;4.80;;;;;;;23.02;43.00;99099.03;3591389;40;20056;-64
2021/06/26 10:23:01;;;;;;;5.63;3.90;;;;;;;22.93;43.07;99090.69;3591254;40;20391;-64
2021/06/26 10:25:30;;;;;;;6.18;5.25;;;;;;;22.91;43.47;99088.25;3590989;40;20048;-64
2021/06/26 10:28:04;;;;;;;6.50;5.10;;;;;;;22.95;43.27;99086.66;3581168;40;20052;-64
2021/06/26 10:30:32;;;;;;;5.28;4.78;;;;;;;22.95;43.25;99091.22;3591535;40;20051;-64
2021/06/26 10:33:05;;;;;;;5.20;4.70;;;;;;;22.91;43.16;99084.75;3591058;40;20142;-65
2021/06/26 10:35:36;;;;;;;6.60;4.70;;;;;;;22.94;43.12;99089.59;3591703;40;20053;-63
2021/06/26 10:38:08;;;;;;;5.60;4.50;;;;;;;22.92;43.45;99087.16;3582118;40;20159;-64
2021/06/26 10:40:43;;;;;;;6.97;4.30;;;;;;;22.91;43.29;99082.88;3591514;40;20105;-63
2021/06/26 10:43:24;;;;;;;5.50;4.07;;;;;;;23.00;43.33;99083.16;3592317;40;20055;-63
2021/06/26 10:46:07;;;;;;;4.75;4.05;;;;;;;22.90;43.15;99083.09;3582180;40;20050;-64
2021/06/26 10:48:37;;;;;;;5.10;4.15;;;;;;;22.85;43.29;99075.00;3591880;40;20044;-64
2021/06/26 10:51:08;;;;;;;5.35;4.88;;;;;;;22.96;43.25;99082.06;3593247;40;20044;-63
2021/06/26 10:53:38;;;;;;;4.70;4.30;;;;;;;22.98;43.28;99080.72;3592298;40;20047;-64
2021/06/26 10:56:08;;;;;;;5.05;4.60;;;;;;;23.07;43.53;99081.00;3592295;40;20137;-64
2021/06/26 10:58:40;;;;;;;5.43;4.90;;;;;;;23.08;43.69;99077.22;3591830;40;20361;-64
2021/06/26 11:01:13;;;;;;;7.57;5.80;;;;;;;23.28;43.06;99075.63;3592101;40;20049;-64
2021/06/26 11:03:41;;;;;;;5.38;4.93;;;;;;;23.42;42.65;99058.63;3591065;40;20346;-64
2021/06/26 11:06:30;;;;;;;5.07;4.07;;;;;;;23.57;42.67;99063.22;3590604;40;20044;-65
2021/06/26 11:09:01;;;;;;;5.28;4.78;;;;;;;23.82;42.38;99059.69;3588097;40;20040;-64
2021/06/26 11:11:39;;;;;;;5.07;4.47;;;;;;;23.90;42.19;99053.75;3590849;40;20044;-63
2021/06/26 11:14:14;;;;;;;4.82;4.30;;;;;;;23.97;42.01;99058.88;3591361;40;20052;-66
2021/06/26 11:17:06;;;;;;;5.20;4.50;;;;;;;24.10;41.81;99057.47;3591317;40;20120;-63
2021/06/26 11:19:36;;;;;;;5.38;4.53;;;;;;;24.25;41.55;99057.44;3590457;40;20040;-62
2021/06/26 11:22:05;;;;;;;4.47;3.58;;;;;;;24.49;40.37;99056.81;3591284;40;20406;-62
2021/06/26 11:24:37;;;;;;;4.68;4.03;;;;;;;24.34;40.50;99058.47;3591102;40;20077;-64
2021/06/26 11:27:08;;;;;;;4.95;4.28;;;;;;;24.49;40.16;99054.09;3591262;40;20064;-65
2021/06/26 11:29:41;;;;;;;;;;;;;;;24.42;40.61;99055.22;3592018;40;20053;-64
2021/06/26 11:32:20;;;;;;;4.80;4.40;;;;;;;24.29;40.53;99047.69;3591573;40;19939;-64
2021/06/26 11:34:56;;;;;;;5.18;4.40;;;;;;;24.30;41.15;99040.41;3582498;40;20125;-63
2021/06/26 11:37:32;;;;;;;6.10;5.35;;;;;;;24.53;40.80;99044.34;3593520;40;20111;-63